sensor_id;sensor_type;location;lat;lon;timestamp;pressure;altitude;pressure_sealevel;temperature;humidity
42603;BME280;28233;55.748;48.752;2022-10-24T00:00:44;98843.53;;;3.84;82.14
42603;BME280;28233;55.748;48.752;2022-10-24T00:02:47;98826.50;;;3.78;82.55
42603;BME280;28233;55.748;48.752;2022-10-24T00:04:50;98825.69;;;3.78;82.25
42603;BME280;28233;55.748;48.752;2022-10-24T00:06:53;98820.06;;;3.74;82.40
42603;BME280;28233;55.748;48.752;2022-10-24T00:08:55;98822.59;;;3.85;82.11
42603;BME280;28233;55.748;48.752;2022-10-24T00:10:58;98828.31;;;3.83;81.99
42603;BME280;28233;55.748;48.752;2022-10-24T00:13:00;98824.81;;;3.83;82.34
42603;BME280;28233;55.748;48.752;2022-10-24T00:15:05;98818.28;;;3.84;82.21
42603;BME280;28233;55.748;48.752;2022-10-24T00:17:07;98801.16;;;3.83;82.54
42603;BME280;28233;55.748;48.752;2022-10-24T00:19:10;98805.50;;;3.84;83.08
42603;BME280;28233;55.748;48.752;2022-10-24T00:21:13;98806.31;;;3.85;82.88
42603;BME280;28233;55.748;48.752;2022-10-24T00:23:16;98790.81;;;3.85;82.92
42603;BME280;28233;55.748;48.752;2022-10-24T00:25:19;98798.16;;;3.85;83.04
42603;BME280;28233;55.748;48.752;2022-10-24T00:27:21;98794.84;;;3.88;83.19
42603;BME280;28233;55.748;48.752;2022-10-24T00:29:24;98795.94;;;3.87;83.35
42603;BME280;28233;55.748;48.752;2022-10-24T00:31:27;98785.88;;;3.87;83.31
42603;BME280;28233;55.748;48.752;2022-10-24T00:33:30;98782.66;;;3.85;84.19
42603;BME280;28233;55.748;48.752;2022-10-24T00:35:32;98784.28;;;3.86;84.15
42603;BME280;28233;55.748;48.752;2022-10-24T00:37:35;98775.59;;;3.84;84.88
42603;BME280;28233;55.748;48.752;2022-10-24T00:39:38;98771.56;;;3.81;84.69
42603;BME280;28233;55.748;48.752;2022-10-24T00:41:41;98777.81;;;3.82;84.97
42603;BME280;28233;55.748;48.752;2022-10-24T00:43:44;98775.28;;;3.86;84.97
42603;BME280;28233;55.748;48.752;2022-10-24T00:45:54;98759.50;;;3.88;85.68
42603;BME280;28233;55.748;48.752;2022-10-24T00:47:58;98761.00;;;3.80;85.93
42603;BME280;28233;55.748;48.752;2022-10-24T00:50:09;98748.53;;;3.79;86.32
42603;BME280;28233;55.748;48.752;2022-10-24T00:52:15;98754.53;;;3.76;87.38
42603;BME280;28233;55.748;48.752;2022-10-24T00:54:19;98763.00;;;3.74;88.07
42603;BME280;28233;55.748;48.752;2022-10-24T00:56:26;98765.72;;;3.74;88.70
42603;BME280;28233;55.748;48.752;2022-10-24T00:58:33;98752.22;;;3.69;89.17
42603;BME280;28233;55.748;48.752;2022-10-24T01:00:36;98751.97;;;3.66;90.13
42603;BME280;28233;55.748;48.752;2022-10-24T01:02:38;98745.88;;;3.55;90.41
42603;BME280;28233;55.748;48.752;2022-10-24T01:04:41;98765.13;;;3.58;90.81
42603;BME280;28233;55.748;48.752;2022-10-24T01:13:34;98732.75;;;3.43;93.17
42603;BME280;28233;55.748;48.752;2022-10-24T01:21:01;98736.41;;;3.33;94.97
42603;BME280;28233;55.748;48.752;2022-10-24T01:23:26;98723.63;;;3.34;94.92
42603;BME280;28233;55.748;48.752;2022-10-24T01:28:25;98724.81;;;3.28;96.30
42603;BME280;28233;55.748;48.752;2022-10-24T01:30:40;98725.63;;;3.28;96.86
42603;BME280;28233;55.748;48.752;2022-10-24T01:32:50;98722.41;;;3.26;96.56
42603;BME280;28233;55.748;48.752;2022-10-24T01:35:17;98716.97;;;3.26;96.57
42603;BME280;28233;55.748;48.752;2022-10-24T01:37:32;98706.63;;;3.28;96.88
42603;BME280;28233;55.748;48.752;2022-10-24T01:39:43;98716.09;;;3.31;97.43
42603;BME280;28233;55.748;48.752;2022-10-24T01:41:49;98699.63;;;3.22;97.30
42603;BME280;28233;55.748;48.752;2022-10-24T01:44:00;98691.72;;;3.26;97.90
42603;BME280;28233;55.748;48.752;2022-10-24T01:46:10;98689.28;;;3.24;97.78
42603;BME280;28233;55.748;48.752;2022-10-24T01:48:17;98688.50;;;3.24;98.32
42603;BME280;28233;55.748;48.752;2022-10-24T01:50:23;98688.72;;;3.27;98.22
42603;BME280;28233;55.748;48.752;2022-10-24T01:52:32;98681.16;;;3.24;98.68
42603;BME280;28233;55.748;48.752;2022-10-24T01:54:37;98680.06;;;3.25;98.90
42603;BME280;28233;55.748;48.752;2022-10-24T01:56:40;98671.94;;;3.25;98.72
42603;BME280;28233;55.748;48.752;2022-10-24T01:58:43;98694.97;;;3.28;98.93
42603;BME280;28233;55.748;48.752;2022-10-24T02:00:51;98679.75;;;3.27;98.88
42603;BME280;28233;55.748;48.752;2022-10-24T02:03:00;98676.75;;;3.28;99.26
42603;BME280;28233;55.748;48.752;2022-10-24T02:07:12;98667.72;;;3.33;99.44
42603;BME280;28233;55.748;48.752;2022-10-24T02:09:16;98667.22;;;3.31;99.37
42603;BME280;28233;55.748;48.752;2022-10-24T02:11:20;98670.16;;;3.34;99.58
42603;BME280;28233;55.748;48.752;2022-10-24T02:13:46;98650.63;;;3.32;99.52
42603;BME280;28233;55.748;48.752;2022-10-24T02:15:54;98648.72;;;3.33;99.46
42603;BME280;28233;55.748;48.752;2022-10-24T02:17:58;98662.59;;;3.31;99.92
42603;BME280;28233;55.748;48.752;2022-10-24T02:20:02;98645.81;;;3.29;99.99
42603;BME280;28233;55.748;48.752;2022-10-24T02:24:28;98645.28;;;3.27;100.00
42603;BME280;28233;55.748;48.752;2022-10-24T02:26:47;98627.97;;;3.23;100.00
42603;BME280;28233;55.748;48.752;2022-10-24T02:28:51;98626.56;;;3.26;100.00
42603;BME280;28233;55.748;48.752;2022-10-24T02:31:00;98619.75;;;3.28;100.00
42603;BME280;28233;55.748;48.752;2022-10-24T02:33:04;98624.66;;;3.26;100.00
42603;BME280;28233;55.748;48.752;2022-10-24T02:35:08;98629.81;;;3.28;100.00
42603;BME280;28233;55.748;48.752;2022-10-24T02:37:13;98622.75;;;3.27;100.00
42603;BME280;28233;55.748;48.752;2022-10-24T02:39:18;98626.56;;;3.26;100.00
42603;BME280;28233;55.748;48.752;2022-10-24T02:41:28;98623.06;;;3.25;100.00
42603;BME280;28233;55.748;48.752;2022-10-24T02:43:32;98619.75;;;3.28;100.00
42603;BME280;28233;55.748;48.752;2022-10-24T02:45:36;98611.59;;;3.28;100.00
42603;BME280;28233;55.748;48.752;2022-10-24T02:47:41;98605.09;;;3.29;100.00
42603;BME280;28233;55.748;48.752;2022-10-24T02:49:46;98606.69;;;3.30;100.00
42603;BME280;28233;55.748;48.752;2022-10-24T02:51:49;98586.66;;;3.26;100.00
42603;BME280;28233;55.748;48.752;2022-10-24T02:53:54;98598.03;;;3.28;100.00
42603;BME280;28233;55.748;48.752;2022-10-24T02:55:56;98602.38;;;3.29;100.00
42603;BME280;28233;55.748;48.752;2022-10-24T02:57:59;98603.97;;;3.30;100.00
42603;BME280;28233;55.748;48.752;2022-10-24T03:00:18;98599.34;;;3.31;100.00
42603;BME280;28233;55.748;48.752;2022-10-24T03:02:22;98596.34;;;3.32;100.00
42603;BME280;28233;55.748;48.752;2022-10-24T03:04:24;98593.09;;;3.30;100.00
42603;BME280;28233;55.748;48.752;2022-10-24T03:06:27;98588.47;;;3.31;100.00
42603;BME280;28233;55.748;48.752;2022-10-24T03:08:30;98585.75;;;3.31;100.00
42603;BME280;28233;55.748;48.752;2022-10-24T03:10:32;98571.09;;;3.32;100.00
42603;BME280;28233;55.748;48.752;2022-10-24T03:12:35;98583.28;;;3.34;100.00
42603;BME280;28233;55.748;48.752;2022-10-24T03:14:37;98577.00;;;3.34;100.00
42603;BME280;28233;55.748;48.752;2022-10-24T03:16:40;98569.69;;;3.34;100.00
42603;BME280;28233;55.748;48.752;2022-10-24T03:18:43;98571.31;;;3.35;100.00
42603;BME280;28233;55.748;48.752;2022-10-24T03:20:45;98573.81;;;3.32;100.00
42603;BME280;28233;55.748;48.752;2022-10-24T03:22:48;98566.09;;;3.39;100.00
42603;BME280;28233;55.748;48.752;2022-10-24T03:24:50;98563.66;;;3.37;100.00
42603;BME280;28233;55.748;48.752;2022-10-24T03:26:57;98564.97;;;3.40;100.00
42603;BME280;28233;55.748;48.752;2022-10-24T03:28:59;98557.06;;;3.44;100.00
42603;BME280;28233;55.748;48.752;2022-10-24T03:31:02;98550.59;;;3.39;100.00
42603;BME280;28233;55.748;48.752;2022-10-24T03:33:05;98552.19;;;3.41;100.00
42603;BME280;28233;55.748;48.752;2022-10-24T03:35:08;98548.41;;;3.42;100.00
42603;BME280;28233;55.748;48.752;2022-10-24T03:37:15;98550.78;;;3.43;100.00
42603;BME280;28233;55.748;48.752;2022-10-24T03:39:18;98547.28;;;3.43;100.00
42603;BME280;28233;55.748;48.752;2022-10-24T03:41:20;98535.63;;;3.42;100.00
42603;BME280;28233;55.748;48.752;2022-10-24T03:43:23;98535.09;;;3.40;100.00
42603;BME280;28233;55.748;48.752;2022-10-24T03:45:25;98533.69;;;3.43;100.00
42603;BME280;28233;55.748;48.752;2022-10-24T03:47:28;98537.22;;;3.43;100.00
42603;BME280;28233;55.748;48.752;2022-10-24T03:49:31;98521.75;;;3.44;100.00
42603;BME280;28233;55.748;48.752;2022-10-24T03:51:33;98517.13;;;3.44;100.00
42603;BME280;28233;55.748;48.752;2022-10-24T03:53:36;98524.94;;;3.46;100.00
42603;BME280;28233;55.748;48.752;2022-10-24T03:55:38;98529.00;;;3.48;100.00
42603;BME280;28233;55.748;48.752;2022-10-24T03:57:41;98518.94;;;3.49;100.00
42603;BME280;28233;55.748;48.752;2022-10-24T03:59:44;98521.03;;;3.52;100.00
42603;BME280;28233;55.748;48.752;2022-10-24T04:01:47;98517.72;;;3.55;100.00
42603;BME280;28233;55.748;48.752;2022-10-24T04:03:49;98515.00;;;3.55;100.00
42603;BME280;28233;55.748;48.752;2022-10-24T04:05:53;98522.06;;;3.56;100.00
42603;BME280;28233;55.748;48.752;2022-10-24T04:07:56;98519.88;;;3.58;100.00
42603;BME280;28233;55.748;48.752;2022-10-24T04:09:58;98517.44;;;3.56;100.00
42603;BME280;28233;55.748;48.752;2022-10-24T04:12:01;98511.50;;;3.54;100.00
42603;BME280;28233;55.748;48.752;2022-10-24T04:14:04;98514.44;;;3.58;100.00
42603;BME280;28233;55.748;48.752;2022-10-24T04:16:07;98510.09;;;3.57;100.00
42603;BME280;28233;55.748;48.752;2022-10-24T04:18:09;98506.28;;;3.58;100.00
42603;BME280;28233;55.748;48.752;2022-10-24T04:20:12;98508.69;;;3.59;100.00
42603;BME280;28233;55.748;48.752;2022-10-24T04:22:15;98510.31;;;3.60;100.00
42603;BME280;28233;55.748;48.752;2022-10-24T04:24:18;98495.59;;;3.62;100.00
42603;BME280;28233;55.748;48.752;2022-10-24T04:26:20;98501.03;;;3.62;100.00
42603;BME280;28233;55.748;48.752;2022-10-24T04:28:23;98506.47;;;3.62;100.00
42603;BME280;28233;55.748;48.752;2022-10-24T04:30:26;98499.94;;;3.63;100.00
42603;BME280;28233;55.748;48.752;2022-10-24T04:32:30;98487.06;;;3.54;100.00
42603;BME280;28233;55.748;48.752;2022-10-24T04:34:34;98493.50;;;3.58;100.00
42603;BME280;28233;55.748;48.752;2022-10-24T04:36:40;98494.28;;;3.59;100.00
42603;BME280;28233;55.748;48.752;2022-10-24T04:38:42;98494.81;;;3.61;100.00
42603;BME280;28233;55.748;48.752;2022-10-24T04:40:49;98487.34;;;3.67;100.00
42603;BME280;28233;55.748;48.752;2022-10-24T04:42:52;98490.91;;;3.67;100.00
42603;BME280;28233;55.748;48.752;2022-10-24T04:44:55;98488.47;;;3.66;100.00
42603;BME280;28233;55.748;48.752;2022-10-24T04:46:57;98485.97;;;3.69;100.00
42603;BME280;28233;55.748;48.752;2022-10-24T04:49:00;98481.34;;;3.70;100.00
42603;BME280;28233;55.748;48.752;2022-10-24T04:51:03;98477.22;;;3.72;100.00
42603;BME280;28233;55.748;48.752;2022-10-24T04:53:05;98486.38;;;3.76;100.00
42603;BME280;28233;55.748;48.752;2022-10-24T04:55:08;98472.28;;;3.74;100.00
42603;BME280;28233;55.748;48.752;2022-10-24T04:57:11;98478.69;;;3.78;100.00
42603;BME280;28233;55.748;48.752;2022-10-24T04:59:13;98477.78;;;3.83;100.00
42603;BME280;28233;55.748;48.752;2022-10-24T05:01:16;98478.91;;;3.82;100.00
42603;BME280;28233;55.748;48.752;2022-10-24T05:03:20;98476.69;;;3.84;100.00
42603;BME280;28233;55.748;48.752;2022-10-24T05:05:23;98469.47;;;3.79;100.00
42603;BME280;28233;55.748;48.752;2022-10-24T05:07:26;98473.97;;;3.84;100.00
42603;BME280;28233;55.748;48.752;2022-10-24T05:09:29;98478.50;;;3.89;100.00
42603;BME280;28233;55.748;48.752;2022-10-24T05:11:32;98477.38;;;3.90;100.00
42603;BME280;28233;55.748;48.752;2022-10-24T05:13:35;98473.25;;;3.92;100.00
42603;BME280;28233;55.748;48.752;2022-10-24T05:15:38;98461.28;;;3.93;100.00
42603;BME280;28233;55.748;48.752;2022-10-24T05:17:41;98472.66;;;3.95;100.00
42603;BME280;28233;55.748;48.752;2022-10-24T05:19:43;98464.19;;;3.97;100.00
42603;BME280;28233;55.748;48.752;2022-10-24T05:21:46;98456.53;;;3.99;100.00
42603;BME280;28233;55.748;48.752;2022-10-24T05:23:48;98457.06;;;4.01;100.00
42603;BME280;28233;55.748;48.752;2022-10-24T05:25:51;98463.28;;;4.01;100.00
42603;BME280;28233;55.748;48.752;2022-10-24T05:27:54;98447.31;;;4.00;100.00
42603;BME280;28233;55.748;48.752;2022-10-24T05:29:58;98453.72;;;4.04;100.00
42603;BME280;28233;55.748;48.752;2022-10-24T05:32:00;98457.44;;;4.08;100.00
42603;BME280;28233;55.748;48.752;2022-10-24T05:34:03;98448.19;;;4.09;100.00
42603;BME280;28233;55.748;48.752;2022-10-24T05:36:07;98438.13;;;4.10;100.00
42603;BME280;28233;55.748;48.752;2022-10-24T05:38:10;98451.72;;;4.10;100.00
42603;BME280;28233;55.748;48.752;2022-10-24T05:40:13;98440.34;;;4.08;100.00
42603;BME280;28233;55.748;48.752;2022-10-24T05:42:16;98434.91;;;4.08;100.00
42603;BME280;28233;55.748;48.752;2022-10-24T05:44:19;98433.97;;;4.12;100.00
42603;BME280;28233;55.748;48.752;2022-10-24T05:46:22;98428.72;;;4.16;100.00
42603;BME280;28233;55.748;48.752;2022-10-24T05:48:25;98427.13;;;4.15;100.00
42603;BME280;28233;55.748;48.752;2022-10-24T05:50:27;98424.13;;;4.16;100.00
42603;BME280;28233;55.748;48.752;2022-10-24T05:52:31;98414.34;;;4.15;100.00
42603;BME280;28233;55.748;48.752;2022-10-24T05:54:34;98398.75;;;4.07;100.00
42603;BME280;28233;55.748;48.752;2022-10-24T05:56:57;98410.69;;;4.20;100.00
42603;BME280;28233;55.748;48.752;2022-10-24T05:58:59;98417.25;;;4.19;100.00
42603;BME280;28233;55.748;48.752;2022-10-24T06:01:02;98409.09;;;4.19;100.00
42603;BME280;28233;55.748;48.752;2022-10-24T06:03:05;98408.28;;;4.18;100.00
42603;BME280;28233;55.748;48.752;2022-10-24T06:05:08;98405.25;;;4.20;100.00
42603;BME280;28233;55.748;48.752;2022-10-24T06:07:11;98400.81;;;4.24;100.00
42603;BME280;28233;55.748;48.752;2022-10-24T06:09:14;98392.97;;;4.22;100.00
42603;BME280;28233;55.748;48.752;2022-10-24T06:11:17;98390.56;;;4.21;100.00
42603;BME280;28233;55.748;48.752;2022-10-24T06:13:20;98390.56;;;4.21;100.00
42603;BME280;28233;55.748;48.752;2022-10-24T06:15:22;98404.34;;;4.24;100.00
42603;BME280;28233;55.748;48.752;2022-10-24T06:17:25;98382.47;;;4.30;100.00
42603;BME280;28233;55.748;48.752;2022-10-24T06:19:28;98397.06;;;4.34;100.00
42603;BME280;28233;55.748;48.752;2022-10-24T06:21:30;98384.25;;;4.34;100.00
42603;BME280;28233;55.748;48.752;2022-10-24T06:23:34;98378.03;;;4.34;100.00
42603;BME280;28233;55.748;48.752;2022-10-24T06:25:39;98388.78;;;4.39;100.00
42603;BME280;28233;55.748;48.752;2022-10-24T06:27:42;98370.38;;;4.36;100.00
42603;BME280;28233;55.748;48.752;2022-10-24T06:29:45;98377.91;;;4.39;100.00
42603;BME280;28233;55.748;48.752;2022-10-24T06:31:48;98363.38;;;4.43;100.00
42603;BME280;28233;55.748;48.752;2022-10-24T06:33:50;98362.75;;;4.47;100.00
42603;BME280;28233;55.748;48.752;2022-10-24T06:35:59;98368.69;;;4.49;100.00
42603;BME280;28233;55.748;48.752;2022-10-24T06:38:01;98362.63;;;4.52;100.00
42603;BME280;28233;55.748;48.752;2022-10-24T06:40:04;98358.78;;;4.53;100.00
42603;BME280;28233;55.748;48.752;2022-10-24T06:42:07;98349.84;;;4.52;100.00
42603;BME280;28233;55.748;48.752;2022-10-24T06:44:10;98353.16;;;4.49;100.00
42603;BME280;28233;55.748;48.752;2022-10-24T06:46:15;98345.00;;;4.49;100.00
42603;BME280;28233;55.748;48.752;2022-10-24T06:48:18;98336.03;;;4.49;100.00
42603;BME280;28233;55.748;48.752;2022-10-24T06:50:20;98337.34;;;4.51;100.00
42603;BME280;28233;55.748;48.752;2022-10-24T06:52:23;98330.47;;;4.54;100.00
42603;BME280;28233;55.748;48.752;2022-10-24T06:54:26;98331.78;;;4.56;100.00
42603;BME280;28233;55.748;48.752;2022-10-24T06:56:31;98328.56;;;4.54;100.00
42603;BME280;28233;55.748;48.752;2022-10-24T06:58:36;98325.22;;;4.57;100.00
42603;BME280;28233;55.748;48.752;2022-10-24T07:00:39;98318.97;;;4.57;100.00
42603;BME280;28233;55.748;48.752;2022-10-24T07:02:42;98316.06;;;4.53;100.00
42603;BME280;28233;55.748;48.752;2022-10-24T07:04:45;98326.94;;;4.53;100.00
42603;BME280;28233;55.748;48.752;2022-10-24T07:06:48;98318.47;;;4.55;100.00
42603;BME280;28233;55.748;48.752;2022-10-24T07:08:52;98322.00;;;4.55;100.00
42603;BME280;28233;55.748;48.752;2022-10-24T07:10:55;98309.81;;;4.53;100.00
42603;BME280;28233;55.748;48.752;2022-10-24T07:12:58;98286.59;;;4.47;100.00
42603;BME280;28233;55.748;48.752;2022-10-24T07:15:01;98301.03;;;4.56;100.00
42603;BME280;28233;55.748;48.752;2022-10-24T07:17:06;98296.59;;;4.60;100.00
42603;BME280;28233;55.748;48.752;2022-10-24T07:19:09;98288.13;;;4.61;100.00
42603;BME280;28233;55.748;48.752;2022-10-24T07:21:21;98288.63;;;4.63;100.00
42603;BME280;28233;55.748;48.752;2022-10-24T07:23:24;98278.53;;;4.64;100.00
42603;BME280;28233;55.748;48.752;2022-10-24T07:25:27;98288.78;;;4.67;100.00
42603;BME280;28233;55.748;48.752;2022-10-24T07:27:31;98286.84;;;4.68;100.00
42603;BME280;28233;55.748;48.752;2022-10-24T07:29:34;98289.28;;;4.69;100.00
42603;BME280;28233;55.748;48.752;2022-10-24T07:31:39;98287.34;;;4.70;100.00
42603;BME280;28233;55.748;48.752;2022-10-24T07:33:42;98263.66;;;4.70;100.00
42603;BME280;28233;55.748;48.752;2022-10-24T07:35:45;98275.84;;;4.73;100.00
42603;BME280;28233;55.748;48.752;2022-10-24T07:37:48;98267.22;;;4.79;100.00
42603;BME280;28233;55.748;48.752;2022-10-24T07:39:51;98266.91;;;4.81;100.00
42603;BME280;28233;55.748;48.752;2022-10-24T07:41:53;98264.19;;;4.81;100.00
42603;BME280;28233;55.748;48.752;2022-10-24T07:43:57;98249.34;;;4.87;100.00
42603;BME280;28233;55.748;48.752;2022-10-24T07:46:05;98254.44;;;4.88;100.00
42603;BME280;28233;55.748;48.752;2022-10-24T07:48:08;98248.41;;;4.92;100.00
42603;BME280;28233;55.748;48.752;2022-10-24T07:50:11;98253.34;;;4.90;100.00
42603;BME280;28233;55.748;48.752;2022-10-24T07:52:14;98254.94;;;4.91;100.00
42603;BME280;28233;55.748;48.752;2022-10-24T07:54:16;98241.97;;;4.87;100.00
42603;BME280;28233;55.748;48.752;2022-10-24T07:56:19;98238.75;;;4.85;100.00
42603;BME280;28233;55.748;48.752;2022-10-24T07:58:23;98253.84;;;4.92;100.00
42603;BME280;28233;55.748;48.752;2022-10-24T08:00:25;98243.41;;;4.94;100.00
42603;BME280;28233;55.748;48.752;2022-10-24T08:02:28;98239.59;;;4.95;100.00
42603;BME280;28233;55.748;48.752;2022-10-24T08:04:31;98239.59;;;4.95;100.00
42603;BME280;28233;55.748;48.752;2022-10-24T08:06:34;98229.34;;;5.00;100.00
42603;BME280;28233;55.748;48.752;2022-10-24T08:08:37;98235.91;;;4.99;100.00
42603;BME280;28233;55.748;48.752;2022-10-24T08:10:40;98241.66;;;4.98;100.00
42603;BME280;28233;55.748;48.752;2022-10-24T08:12:42;98225.66;;;4.96;100.00
42603;BME280;28233;55.748;48.752;2022-10-24T08:14:46;98229.69;;;4.99;100.00
42603;BME280;28233;55.748;48.752;2022-10-24T08:16:48;98223.28;;;5.03;100.00
42603;BME280;28233;55.748;48.752;2022-10-24T08:18:54;98211.25;;;5.04;100.00
42603;BME280;28233;55.748;48.752;2022-10-24T08:21:02;98214.00;;;5.04;100.00
42603;BME280;28233;55.748;48.752;2022-10-24T08:23:06;98210.97;;;5.06;100.00
42603;BME280;28233;55.748;48.752;2022-10-24T08:25:09;98207.41;;;5.05;100.00
42603;BME280;28233;55.748;48.752;2022-10-24T08:27:13;98208.84;;;5.03;100.00
42603;BME280;28233;55.748;48.752;2022-10-24T08:29:16;98211.44;;;5.08;100.00
42603;BME280;28233;55.748;48.752;2022-10-24T08:31:24;98201.00;;;5.10;100.00
42603;BME280;28233;55.748;48.752;2022-10-24T08:33:28;98200.41;;;5.13;100.00
42603;BME280;28233;55.748;48.752;2022-10-24T08:35:31;98207.75;;;5.13;100.00
42603;BME280;28233;55.748;48.752;2022-10-24T08:37:35;98196.53;;;5.14;100.00
42603;BME280;28233;55.748;48.752;2022-10-24T08:39:44;98214.16;;;5.17;100.00
42603;BME280;28233;55.748;48.752;2022-10-24T08:41:52;98197.22;;;5.20;100.00
42603;BME280;28233;55.748;48.752;2022-10-24T08:44:03;98201.22;;;5.22;100.00
42603;BME280;28233;55.748;48.752;2022-10-24T08:48:20;98196.56;;;5.23;100.00
42603;BME280;28233;55.748;48.752;2022-10-24T08:50:31;98201.84;;;5.28;100.00
42603;BME280;28233;55.748;48.752;2022-10-24T08:52:44;98202.34;;;5.30;100.00
42603;BME280;28233;55.748;48.752;2022-10-24T08:54:51;98198.47;;;5.31;100.00
42603;BME280;28233;55.748;48.752;2022-10-24T08:56:55;98202.81;;;5.32;100.00
42603;BME280;28233;55.748;48.752;2022-10-24T08:59:01;98196.72;;;5.35;100.00
42603;BME280;28233;55.748;48.752;2022-10-24T09:01:11;98189.03;;;5.37;100.00
42603;BME280;28233;55.748;48.752;2022-10-24T09:03:30;98195.13;;;5.43;100.00
42603;BME280;28233;55.748;48.752;2022-10-24T09:06:04;98188.06;;;5.33;100.00
42603;BME280;28233;55.748;48.752;2022-10-24T09:08:23;98192.56;;;5.38;100.00
42603;BME280;28233;55.748;48.752;2022-10-24T09:10:48;98198.50;;;5.40;100.00
42603;BME280;28233;55.748;48.752;2022-10-24T09:12:52;98181.34;;;5.39;100.00
42603;BME280;28233;55.748;48.752;2022-10-24T09:14:58;98175.91;;;5.39;100.00
42603;BME280;28233;55.748;48.752;2022-10-24T09:19:22;98177.97;;;5.42;100.00
42603;BME280;28233;55.748;48.752;2022-10-24T09:21:26;98176.06;;;5.43;100.00
42603;BME280;28233;55.748;48.752;2022-10-24T09:23:31;98165.00;;;5.39;100.00
42603;BME280;28233;55.748;48.752;2022-10-24T09:25:37;98169.97;;;5.37;100.00
42603;BME280;28233;55.748;48.752;2022-10-24T09:27:43;98170.47;;;5.39;100.00
42603;BME280;28233;55.748;48.752;2022-10-24T09:29:47;98166.13;;;5.38;100.00
42603;BME280;28233;55.748;48.752;2022-10-24T09:31:50;98174.28;;;5.38;100.00
42603;BME280;28233;55.748;48.752;2022-10-24T09:33:53;98155.56;;;5.37;100.00
42603;BME280;28233;55.748;48.752;2022-10-24T09:36:03;98168.38;;;5.36;100.00
42603;BME280;28233;55.748;48.752;2022-10-24T09:38:26;98168.38;;;5.36;100.00
42603;BME280;28233;55.748;48.752;2022-10-24T09:40:31;98168.38;;;5.36;100.00
42603;BME280;28233;55.748;48.752;2022-10-24T09:42:36;98161.00;;;5.37;100.00
42603;BME280;28233;55.748;48.752;2022-10-24T09:44:39;98169.66;;;5.39;100.00
42603;BME280;28233;55.748;48.752;2022-10-24T09:46:43;98154.13;;;5.39;100.00
42603;BME280;28233;55.748;48.752;2022-10-24T09:49:00;98154.44;;;5.38;100.00
42603;BME280;28233;55.748;48.752;2022-10-24T09:51:04;98152.97;;;5.40;100.00
42603;BME280;28233;55.748;48.752;2022-10-24T09:53:26;98146.75;;;5.40;100.00
42603;BME280;28233;55.748;48.752;2022-10-24T09:55:30;98157.63;;;5.40;100.00
42603;BME280;28233;55.748;48.752;2022-10-24T09:57:38;98127.84;;;5.35;100.00
42603;BME280;28233;55.748;48.752;2022-10-24T09:59:46;98146.44;;;5.41;100.00
42603;BME280;28233;55.748;48.752;2022-10-24T10:01:49;98137.59;;;5.44;100.00
42603;BME280;28233;55.748;48.752;2022-10-24T10:04:03;98141.28;;;5.48;100.00
42603;BME280;28233;55.748;48.752;2022-10-24T10:06:17;98144.03;;;5.48;100.00
42603;BME280;28233;55.748;48.752;2022-10-24T10:08:23;98139.38;;;5.49;100.00
42603;BME280;28233;55.748;48.752;2022-10-24T10:10:33;98150.25;;;5.49;100.00
42603;BME280;28233;55.748;48.752;2022-10-24T10:12:38;98135.69;;;5.54;100.00
42603;BME280;28233;55.748;48.752;2022-10-24T10:14:42;98132.66;;;5.55;100.00
42603;BME280;28233;55.748;48.752;2022-10-24T10:16:45;98143.84;;;5.54;100.00
42603;BME280;28233;55.748;48.752;2022-10-24T10:21:12;98139.38;;;5.58;100.00
42603;BME280;28233;55.748;48.752;2022-10-24T10:23:30;98132.00;;;5.58;100.00
42603;BME280;28233;55.748;48.752;2022-10-24T10:25:34;98123.16;;;5.61;100.00
42603;BME280;28233;55.748;48.752;2022-10-24T10:27:39;98123.50;;;5.60;100.00
42603;BME280;28233;55.748;48.752;2022-10-24T10:29:42;98130.84;;;5.59;100.00
42603;BME280;28233;55.748;48.752;2022-10-24T10:31:51;98129.75;;;5.60;100.00
42603;BME280;28233;55.748;48.752;2022-10-24T10:36:40;98121.22;;;5.62;100.00
42603;BME280;28233;55.748;48.752;2022-10-24T10:38:49;98115.16;;;5.65;100.00
42603;BME280;28233;55.748;48.752;2022-10-24T10:44:09;98110.00;;;5.63;100.00
42603;BME280;28233;55.748;48.752;2022-10-24T10:46:12;98113.53;;;5.64;100.00
42603;BME280;28233;55.748;48.752;2022-10-24T10:48:24;98108.09;;;5.64;100.00
42603;BME280;28233;55.748;48.752;2022-10-24T10:55:46;98106.31;;;5.59;100.00
42603;BME280;28233;55.748;48.752;2022-10-24T10:58:25;98096.25;;;5.60;100.00
42603;BME280;28233;55.748;48.752;2022-10-24T11:00:47;98094.16;;;5.57;100.00
42603;BME280;28233;55.748;48.752;2022-10-24T11:08:02;98097.69;;;5.57;100.00
42603;BME280;28233;55.748;48.752;2022-10-24T11:10:11;98093.97;;;5.62;100.00
42603;BME280;28233;55.748;48.752;2022-10-24T11:12:29;98097.66;;;5.66;100.00
42603;BME280;28233;55.748;48.752;2022-10-24T11:16:10;98086.09;;;5.69;100.00
42603;BME280;28233;55.748;48.752;2022-10-24T11:19:33;98088.69;;;5.65;100.00
42603;BME280;28233;55.748;48.752;2022-10-24T11:21:40;98091.75;;;5.64;100.00
42603;BME280;28233;55.748;48.752;2022-10-24T11:23:54;98098.31;;;5.63;100.00
42603;BME280;28233;55.748;48.752;2022-10-24T11:26:16;98085.97;;;5.65;100.00
42603;BME280;28233;55.748;48.752;2022-10-24T11:28:42;98097.84;;;5.69;100.00
42603;BME280;28233;55.748;48.752;2022-10-24T11:30:46;98091.56;;;5.69;100.00
42603;BME280;28233;55.748;48.752;2022-10-24T11:32:58;98078.41;;;5.71;100.00
42603;BME280;28233;55.748;48.752;2022-10-24T11:35:28;98087.06;;;5.73;100.00
42603;BME280;28233;55.748;48.752;2022-10-24T11:37:39;98094.94;;;5.75;100.00
42603;BME280;28233;55.748;48.752;2022-10-24T11:40:16;98089.97;;;5.77;100.00
42603;BME280;28233;55.748;48.752;2022-10-24T11:42:29;98085.63;;;5.76;100.00
42603;BME280;28233;55.748;48.752;2022-10-24T11:46:52;98088.16;;;5.81;100.00